createdAt,value
2023-04-05T00:01:51.257Z,102441.31
2023-04-05T00:04:21.249Z,102428.41
2023-04-05T00:06:52.894Z,102449.09
2023-04-05T00:09:25.163Z,102431.00
2023-04-05T00:11:54.410Z,102448.19
2023-04-05T00:14:25.046Z,102442.19
2023-04-05T00:16:54.184Z,102430.16
2023-04-05T00:19:23.706Z,102447.34
2023-04-05T00:21:54.766Z,102445.59
2023-04-05T00:24:24.620Z,102430.97
2023-04-05T00:26:53.685Z,102438.72
2023-04-05T00:29:22.806Z,102432.69
2023-04-05T00:31:52.324Z,102434.41
2023-04-05T00:34:21.602Z,102418.03
2023-04-05T00:36:50.825Z,102428.41
2023-04-05T00:39:23.689Z,102428.41
2023-04-05T00:41:53.089Z,102419.78
2023-04-05T00:44:22.502Z,102428.38
2023-04-05T00:46:52.421Z,102306.16
2023-04-05T00:49:21.617Z,102420.63
2023-04-05T00:51:52.431Z,102416.34
2023-04-05T00:54:21.934Z,102419.75
2023-04-05T00:56:53.484Z,102416.31
2023-04-05T00:59:22.954Z,102396.50
2023-04-05T01:01:57.824Z,102410.28
2023-04-05T01:04:30.777Z,102409.41
2023-04-05T01:07:08.819Z,102396.50
2023-04-05T01:09:49.535Z,102405.94
2023-04-05T01:12:22.485Z,102401.63
2023-04-05T01:14:53.227Z,102400.78
2023-04-05T01:17:24.747Z,102405.06
2023-04-05T01:19:59.422Z,102399.91
2023-04-05T01:23:04.187Z,102386.13
2023-04-05T01:26:16.801Z,102392.13
2023-04-05T01:29:09.993Z,102386.94
2023-04-05T01:31:46.383Z,102386.06
2023-04-05T01:34:25.882Z,102388.66
2023-04-05T01:36:58.043Z,102395.50
2023-04-05T01:39:31.358Z,102391.16
2023-04-05T01:42:01.354Z,102391.13
2023-04-05T01:44:30.855Z,102379.94
2023-04-05T01:47:01.220Z,102384.22
2023-04-05T01:49:33.185Z,102385.06
2023-04-05T01:52:02.337Z,102377.31
2023-04-05T01:54:31.558Z,102366.13
2023-04-05T01:57:01.063Z,102370.47
2023-04-05T01:59:30.327Z,102372.19
2023-04-05T02:02:03.006Z,102363.59
2023-04-05T02:04:32.192Z,102368.72
2023-04-05T02:07:01.688Z,102364.38
2023-04-05T02:09:30.742Z,102364.38
2023-04-05T02:11:59.775Z,102359.22
2023-04-05T02:14:29.062Z,102355.78
2023-04-05T02:16:58.785Z,102354.88
2023-04-05T02:19:30.045Z,102348.84
2023-04-05T02:21:59.498Z,102319.59
2023-04-05T02:24:28.953Z,102333.34
2023-04-05T02:26:58.135Z,102344.53
2023-04-05T02:29:27.654Z,102339.34
2023-04-05T02:31:57.266Z,102331.63
2023-04-05T02:34:27.395Z,102336.78
2023-04-05T02:36:59.056Z,102340.19
2023-04-05T02:39:29.548Z,102329.03
2023-04-05T02:41:59.258Z,102333.31
2023-04-05T02:44:29.632Z,102330.75
2023-04-05T02:46:59.038Z,102320.41
2023-04-05T02:49:33.295Z,102335.84
2023-04-05T02:52:06.895Z,102296.19
2023-04-05T02:54:36.914Z,102313.41
2023-04-05T02:57:05.991Z,102325.38
2023-04-05T02:59:45.733Z,102305.56
2023-04-05T03:02:14.982Z,102320.22
2023-04-05T03:04:46.756Z,102328.75
2023-04-05T03:07:20.308Z,102315.88
2023-04-05T03:09:51.562Z,102322.69
2023-04-05T03:12:24.989Z,102322.66
2023-04-05T03:14:54.676Z,102302.84
2023-04-05T03:17:28.617Z,102315.75
2023-04-05T03:20:06.606Z,102277.84
2023-04-05T03:22:37.484Z,102316.59
2023-04-05T03:25:10.303Z,102306.25
2023-04-05T03:27:46.113Z,102278.63
2023-04-05T03:30:18.827Z,102308.75
2023-04-05T03:32:57.445Z,102302.72
2023-04-05T03:35:47.612Z,102301.00
2023-04-05T03:38:19.120Z,102304.38
2023-04-05T03:41:19.974Z,102224.22
2023-04-05T03:43:50.181Z,102301.72
2023-04-05T03:46:24.449Z,102292.22
2023-04-05T03:48:55.851Z,102312.03
2023-04-05T03:51:24.996Z,102319.72
2023-04-05T03:53:55.653Z,102317.97
2023-04-05T03:56:28.906Z,102276.63
2023-04-05T03:58:59.898Z,102299.91
2023-04-05T04:01:31.327Z,102305.97
2023-04-05T04:04:00.944Z,102311.16
2023-04-05T04:06:32.715Z,102311.13
2023-04-05T04:09:07.922Z,102312.84
2023-04-05T04:11:36.717Z,102315.41
2023-04-05T04:14:07.525Z,102313.72
2023-04-05T04:17:02.366Z,102285.19
2023-04-05T04:19:55.849Z,102311.94
2023-04-05T04:22:45.925Z,102307.59
2023-04-05T04:25:46.205Z,102311.03
2023-04-05T04:28:39.271Z,102303.31
2023-04-05T04:31:34.604Z,102263.72
2023-04-05T04:34:26.662Z,102302.53
2023-04-05T04:37:22.600Z,102298.25
2023-04-05T04:40:12.482Z,102298.19
2023-04-05T04:43:00.251Z,102295.53
2023-04-05T04:46:00.129Z,102300.59
2023-04-05T04:48:42.149Z,102302.22
2023-04-05T04:51:26.232Z,102298.75
2023-04-05T04:53:55.293Z,102283.28
2023-04-05T04:56:24.138Z,102278.91
2023-04-05T04:58:57.114Z,102290.97
2023-04-05T05:01:26.736Z,102290.94
2023-04-05T05:03:55.658Z,102304.69
2023-04-05T05:06:31.446Z,102305.38
2023-04-05T05:09:00.171Z,102300.34
2023-04-05T05:11:30.220Z,102303.78
2023-04-05T05:14:03.579Z,102301.25
2023-04-05T05:16:34.612Z,102297.78
2023-04-05T05:19:03.484Z,102296.00
2023-04-05T05:21:41.834Z,102300.28
2023-04-05T05:24:11.807Z,102304.59
2023-04-05T05:26:40.749Z,102305.41
2023-04-05T05:29:13.335Z,102309.69
2023-04-05T05:31:45.230Z,102305.34
2023-04-05T05:34:17.486Z,102305.34
2023-04-05T05:36:51.633Z,102306.25
2023-04-05T05:39:20.654Z,102297.69
2023-04-05T05:41:49.346Z,102302.88
2023-04-05T05:44:19.451Z,102300.31
2023-04-05T05:46:48.414Z,102302.91
2023-04-05T05:49:18.877Z,102251.31
2023-04-05T05:51:47.610Z,102302.25
2023-04-05T05:54:16.340Z,102308.41
2023-04-05T05:56:45.186Z,102218.97
2023-04-05T05:59:14.057Z,102294.13
2023-04-05T06:01:46.724Z,102301.94
2023-04-05T06:04:22.944Z,102294.38
2023-04-05T06:06:51.803Z,102299.66
2023-04-05T06:09:20.466Z,102267.88
2023-04-05T06:11:56.348Z,102276.59
2023-04-05T06:14:26.463Z,102306.81
2023-04-05T06:16:56.592Z,102300.84
2023-04-05T06:19:25.443Z,102302.69
2023-04-05T06:21:55.116Z,102294.13
2023-04-05T06:24:23.975Z,102301.03
2023-04-05T06:26:53.006Z,102305.34
2023-04-05T06:29:21.791Z,102298.50
2023-04-05T06:31:51.199Z,102296.81
2023-04-05T06:34:23.964Z,102277.88
2023-04-05T06:36:52.851Z,102295.09
2023-04-05T06:39:21.761Z,102140.31
2023-04-05T06:41:50.424Z,102301.97
2023-04-05T06:44:22.691Z,102298.56
2023-04-05T06:46:53.621Z,102301.16
2023-04-05T06:49:23.786Z,102302.88
2023-04-05T06:51:52.619Z,102297.69
2023-04-05T06:54:25.008Z,102305.44
2023-04-05T06:56:57.391Z,102278.75
2023-04-05T06:59:27.505Z,102304.53
2023-04-05T07:01:56.522Z,102286.38
2023-04-05T07:04:29.450Z,102286.25
2023-04-05T07:06:58.812Z,102286.13
2023-04-05T07:09:30.277Z,102289.44
2023-04-05T07:11:58.976Z,102287.63
2023-04-05T07:14:27.707Z,102285.69
2023-04-05T07:16:56.685Z,102278.72
2023-04-05T07:19:27.366Z,102281.94
2023-04-05T07:21:56.804Z,102270.66
2023-04-05T07:24:25.778Z,102274.63
2023-04-05T07:26:55.081Z,102272.00
2023-04-05T07:29:23.927Z,102260.56
2023-04-05T07:31:52.733Z,102257.84
2023-04-05T07:34:21.429Z,102273.91
2023-04-05T07:36:51.512Z,102276.69
2023-04-05T07:39:21.380Z,102258.28
2023-04-05T07:41:51.705Z,102274.38
2023-04-05T07:44:24.416Z,102269.06
2023-04-05T07:46:53.218Z,102269.84
2023-04-05T07:49:27.298Z,102239.59
2023-04-05T07:51:57.854Z,102262.44
2023-04-05T07:54:26.870Z,102266.41
2023-04-05T07:56:58.183Z,102268.31
2023-04-05T07:59:27.113Z,102263.47
2023-04-05T08:01:57.219Z,102267.69
2023-04-05T08:04:30.953Z,102236.38
2023-04-05T08:07:01.367Z,102265.31
2023-04-05T08:09:30.162Z,102266.84
2023-04-05T08:11:58.820Z,102258.41
2023-04-05T08:14:27.510Z,102260.53
2023-04-05T08:16:58.827Z,102256.72
2023-04-05T08:19:27.753Z,102166.47
2023-04-05T08:21:56.502Z,102243.69
2023-04-05T08:24:26.737Z,102249.31
2023-04-05T08:26:56.342Z,102238.84
2023-04-05T08:29:27.756Z,102248.63
2023-04-05T08:31:57.907Z,102241.25
2023-04-05T08:34:26.920Z,102246.00
2023-04-05T08:37:00.194Z,102224.25
2023-04-05T08:39:30.828Z,102240.19
2023-04-05T08:42:05.533Z,102234.63
2023-04-05T08:44:38.985Z,102237.50
2023-04-05T08:47:10.369Z,102234.53
2023-04-05T08:49:39.203Z,102147.69
2023-04-05T08:52:08.043Z,102222.38
2023-04-05T08:54:40.754Z,102231.66
2023-04-05T08:57:10.761Z,102236.31
2023-04-05T08:59:40.842Z,102231.53
2023-04-05T09:02:16.372Z,102227.09
2023-04-05T09:04:49.614Z,102223.97
2023-04-05T09:07:19.203Z,102227.06
2023-04-05T09:09:57.160Z,102221.06
2023-04-05T09:12:26.917Z,102225.13
2023-04-05T09:14:59.962Z,102227.13
2023-04-05T09:17:30.102Z,102228.63
2023-04-05T09:19:58.786Z,102225.41
2023-04-05T09:22:30.025Z,102223.84
2023-04-05T09:25:01.275Z,102235.03
2023-04-05T09:27:29.995Z,102221.00
2023-04-05T09:30:01.403Z,102219.75
2023-04-05T09:32:30.398Z,102214.06
2023-04-05T09:35:04.121Z,102223.50
2023-04-05T09:37:35.780Z,102217.19
2023-04-05T09:40:07.618Z,102221.31
2023-04-05T09:42:46.229Z,102215.94
2023-04-05T09:45:16.259Z,102211.22
2023-04-05T09:47:56.639Z,102208.03
2023-04-05T09:50:25.548Z,102215.50
2023-04-05T09:53:08.855Z,102217.00
2023-04-05T09:55:40.677Z,102210.31
2023-04-05T09:58:13.621Z,102208.50
2023-04-05T10:00:59.925Z,102208.25
2023-04-05T10:03:32.081Z,102197.34
2023-04-05T10:06:01.191Z,102193.28
2023-04-05T10:08:30.181Z,102191.25
2023-04-05T10:11:02.661Z,102197.16
2023-04-05T10:13:31.743Z,102186.56
2023-04-05T10:16:03.666Z,102183.72
2023-04-05T10:18:41.627Z,102164.28
2023-04-05T10:21:12.819Z,102184.66
2023-04-05T10:23:45.985Z,102180.63
2023-04-05T10:26:21.914Z,102178.38
2023-04-05T10:28:57.499Z,102177.63
2023-04-05T10:31:37.578Z,102184.72
2023-04-05T10:34:08.560Z,102178.63
2023-04-05T10:36:43.426Z,102168.97
2023-04-05T10:39:24.106Z,102181.59
2023-04-05T10:41:57.960Z,102176.75
2023-04-05T10:44:27.404Z,102169.84
2023-04-05T10:46:58.244Z,102174.41
2023-04-05T10:49:35.637Z,102171.22
2023-04-05T10:52:05.280Z,102166.59
2023-04-05T10:54:36.762Z,102181.31
2023-04-05T10:57:11.931Z,102162.97
2023-04-05T10:59:44.109Z,102157.72
2023-04-05T11:02:13.534Z,102148.56
2023-04-05T11:04:44.970Z,102141.31
2023-04-05T11:07:15.532Z,102146.50
2023-04-05T11:09:57.154Z,102145.94
2023-04-05T11:13:03.076Z,102153.59
2023-04-05T11:15:34.835Z,102150.59
2023-04-05T11:18:05.789Z,102150.50
2023-04-05T11:20:42.748Z,102142.97
2023-04-05T11:23:12.458Z,102149.34
2023-04-05T11:25:42.224Z,102156.34
2023-04-05T11:28:24.126Z,102149.78
2023-04-05T11:30:57.073Z,102146.31
2023-04-05T11:33:38.548Z,102142.47
2023-04-05T11:36:07.614Z,102132.47
2023-04-05T11:38:40.989Z,102134.03
2023-04-05T11:41:17.566Z,102121.69
2023-04-05T11:43:47.569Z,102121.81
2023-04-05T11:46:18.446Z,102120.91
2023-04-05T11:48:50.659Z,102123.13
2023-04-05T11:51:23.816Z,102114.59
2023-04-05T11:53:52.612Z,102110.41
2023-04-05T11:56:21.367Z,102019.16
2023-04-05T11:58:50.136Z,102110.50
2023-04-05T12:01:22.937Z,102109.44
2023-04-05T12:03:55.602Z,102107.59
2023-04-05T12:06:26.138Z,102107.72
2023-04-05T12:08:56.194Z,102106.22
2023-04-05T12:11:27.256Z,102061.44
2023-04-05T12:13:58.631Z,102093.34
2023-04-05T12:16:29.165Z,102088.22
2023-04-05T12:18:59.366Z,102094.94
2023-04-05T12:21:28.826Z,102081.75
2023-04-05T12:23:57.995Z,102089.13
2023-04-05T12:26:27.017Z,102094.59
2023-04-05T12:28:56.993Z,102088.88
2023-04-05T12:31:41.454Z,102091.75
2023-04-05T12:34:11.583Z,102084.16
2023-04-05T12:36:40.847Z,102089.47
2023-04-05T12:39:11.014Z,102067.03
2023-04-05T12:41:40.189Z,102082.25
2023-04-05T12:44:16.008Z,102081.22
2023-04-05T12:46:47.429Z,102075.94
2023-04-05T12:49:17.459Z,102077.53
2023-04-05T12:51:47.303Z,102044.53
2023-04-05T12:54:16.840Z,102046.94
2023-04-05T12:56:45.626Z,102059.03
2023-04-05T12:59:14.437Z,102068.03
2023-04-05T13:01:43.170Z,102061.00
2023-04-05T13:04:16.566Z,102058.19
2023-04-05T13:06:48.169Z,102042.81
2023-04-05T13:09:17.323Z,102044.94
2023-04-05T13:11:46.155Z,102051.94
2023-04-05T13:14:15.519Z,102045.97
2023-04-05T13:16:44.255Z,102037.53
2023-04-05T13:19:14.474Z,102040.31
2023-04-05T13:21:43.235Z,102047.13
2023-04-05T13:24:13.007Z,102045.16
2023-04-05T13:26:41.964Z,102037.53
2023-04-05T13:29:10.704Z,102029.25
2023-04-05T13:31:40.912Z,102018.59
2023-04-05T13:34:09.785Z,102027.38
2023-04-05T13:36:39.921Z,102025.00
2023-04-05T13:39:08.676Z,102008.09
2023-04-05T13:41:37.438Z,102010.56
2023-04-05T13:44:06.819Z,102004.72
2023-04-05T13:46:35.909Z,101998.31
2023-04-05T13:49:04.702Z,102010.63
2023-04-05T13:51:34.525Z,102003.47
2023-04-05T13:54:05.068Z,101992.03
2023-04-05T13:56:34.042Z,101996.56
2023-04-05T13:59:02.951Z,101994.59
2023-04-05T14:01:35.779Z,101974.88
2023-04-05T14:04:04.546Z,101990.88
2023-04-05T14:06:35.856Z,101983.31
2023-04-05T14:09:06.115Z,101972.81
2023-04-05T14:11:35.374Z,101980.09
2023-04-05T14:14:04.596Z,101976.78
2023-04-05T14:16:33.598Z,101971.91
2023-04-05T14:19:02.669Z,101970.31
2023-04-05T14:21:31.775Z,101976.16
2023-04-05T14:24:00.690Z,101966.06
2023-04-05T14:26:31.230Z,101969.41
2023-04-05T14:29:00.160Z,101968.25
2023-04-05T14:31:29.386Z,101970.06
2023-04-05T14:34:00.920Z,101934.63
2023-04-05T14:36:29.813Z,101939.91
2023-04-05T14:38:58.630Z,101944.44
2023-04-05T14:41:28.249Z,101947.09
2023-04-05T14:43:58.520Z,101943.59
2023-04-05T14:46:27.350Z,101952.31
2023-04-05T14:48:56.197Z,101943.03
2023-04-05T14:51:25.171Z,101930.88
2023-04-05T14:53:54.014Z,101930.72
2023-04-05T14:56:25.893Z,101837.53
2023-04-05T14:58:54.672Z,101958.53
2023-04-05T15:01:24.884Z,101928.91
2023-04-05T15:03:53.979Z,101918.31
2023-04-05T15:06:22.909Z,101927.69
2023-04-05T15:08:52.338Z,101922.66
2023-04-05T15:11:21.750Z,101924.28
2023-04-05T15:13:50.588Z,101898.22
2023-04-05T15:16:19.451Z,101922.91
2023-04-05T15:18:52.037Z,101899.78
2023-04-05T15:21:21.064Z,101920.72
2023-04-05T15:23:52.090Z,101901.13
2023-04-05T15:26:21.013Z,101913.69
2023-04-05T15:28:53.005Z,101832.00
2023-04-05T15:31:24.119Z,101897.41
2023-04-05T15:33:54.341Z,101895.75
2023-04-05T15:36:23.106Z,101890.78
2023-04-05T15:38:51.920Z,101895.97
2023-04-05T15:41:20.777Z,101896.22
2023-04-05T15:43:49.619Z,101886.56
2023-04-05T15:46:18.543Z,101881.16
2023-04-05T15:48:47.379Z,101885.09
2023-04-05T15:51:17.590Z,101868.50
2023-04-05T15:53:46.643Z,101875.09
2023-04-05T15:56:15.453Z,101881.19
2023-04-05T15:58:44.269Z,101863.25
2023-04-05T16:01:13.183Z,101871.38
2023-04-05T16:03:42.758Z,101873.34
2023-04-05T16:06:18.368Z,101860.75
2023-04-05T16:08:47.169Z,101872.13
2023-04-05T16:11:16.024Z,101862.81
2023-04-05T16:13:47.201Z,101860.03
2023-04-05T16:16:29.841Z,101863.53
2023-04-05T16:19:08.122Z,101866.56
2023-04-05T16:21:38.519Z,101868.72
2023-04-05T16:24:07.912Z,101871.63
2023-04-05T16:26:36.830Z,101847.22
2023-04-05T16:29:05.762Z,101863.63
2023-04-05T16:31:35.834Z,101837.88
2023-04-05T16:34:04.784Z,101867.41
2023-04-05T16:36:33.691Z,101861.00
2023-04-05T16:39:04.265Z,101861.44
2023-04-05T16:41:34.718Z,101858.41
2023-04-05T16:44:03.793Z,101858.09
2023-04-05T16:46:47.538Z,101852.16
2023-04-05T16:49:16.925Z,101855.47
2023-04-05T16:51:45.740Z,101863.09
2023-04-05T16:54:16.709Z,101857.41
2023-04-05T16:56:45.536Z,101870.78
2023-04-05T16:59:14.385Z,101868.28
2023-04-05T17:01:43.319Z,101872.59
2023-04-05T17:04:12.234Z,101877.03
2023-04-05T17:06:40.934Z,101876.75
2023-04-05T17:09:11.996Z,101874.81
2023-04-05T17:11:44.425Z,101882.28
2023-04-05T17:14:13.305Z,101885.22
2023-04-05T17:16:42.627Z,101871.41
2023-04-05T17:19:13.791Z,101872.34
2023-04-05T17:21:45.142Z,101875.66
2023-04-05T17:24:14.022Z,101870.44
2023-04-05T17:26:44.198Z,101878.97
2023-04-05T17:29:13.674Z,101868.22
2023-04-05T17:31:44.102Z,101872.66
2023-04-05T17:34:15.073Z,101865.25
2023-04-05T17:36:45.126Z,101868.19
2023-04-05T17:39:14.023Z,101853.97
2023-04-05T17:41:46.890Z,101852.75
2023-04-05T17:44:19.061Z,101882.81
2023-04-05T17:46:57.326Z,101873.78
2023-04-05T17:49:36.446Z,101883.22
2023-04-05T17:52:05.605Z,101879.22
2023-04-05T17:54:37.148Z,101782.41
2023-04-05T17:57:15.095Z,101873.13
2023-04-05T17:59:44.884Z,101875.09
2023-04-05T18:02:14.122Z,101876.09
2023-04-05T18:04:45.986Z,101874.38
2023-04-05T18:07:14.880Z,101878.00
2023-04-05T18:09:46.546Z,101868.56
2023-04-05T18:12:16.872Z,101880.66
2023-04-05T18:14:45.841Z,101873.88
2023-04-05T18:17:14.827Z,101621.78
2023-04-05T18:19:43.839Z,101875.13
2023-04-05T18:22:12.760Z,101876.34
2023-04-05T18:24:42.482Z,101881.72
2023-04-05T18:27:11.945Z,101875.16
2023-04-05T18:29:42.861Z,101877.25
2023-04-05T18:32:12.111Z,101877.31
2023-04-05T18:34:41.539Z,101879.59
2023-04-05T18:37:11.055Z,101884.03
2023-04-05T18:39:40.165Z,101774.00
2023-04-05T18:42:09.195Z,101886.50
2023-04-05T18:44:38.004Z,101883.97
2023-04-05T18:47:08.160Z,101884.00
2023-04-05T18:49:37.151Z,101884.06
2023-04-05T18:52:05.923Z,101885.88
2023-04-05T18:54:34.738Z,101894.72
2023-04-05T18:57:03.527Z,101884.44
2023-04-05T18:59:32.332Z,101894.03
2023-04-05T19:02:01.168Z,101895.78
2023-04-05T19:04:31.986Z,101878.00
2023-04-05T19:07:00.830Z,101908.00
2023-04-05T19:09:29.649Z,101898.50
2023-04-05T19:11:58.771Z,101902.78
2023-04-05T19:14:31.318Z,101898.53
2023-04-05T19:17:00.188Z,101880.66
2023-04-05T19:19:31.056Z,101900.53
2023-04-05T19:21:59.837Z,101896.31
2023-04-05T19:24:29.703Z,101899.88
2023-04-05T19:26:58.636Z,101894.75
2023-04-05T19:29:27.433Z,101787.28
2023-04-05T19:31:57.228Z,101888.00
2023-04-05T19:34:26.503Z,101888.78
2023-04-05T19:36:57.587Z,101889.75
2023-04-05T19:39:26.380Z,101887.19
2023-04-05T19:41:56.224Z,101881.41
2023-04-05T19:44:50.804Z,101881.56
2023-04-05T19:47:21.163Z,101850.06
2023-04-05T19:49:51.300Z,101872.09
2023-04-05T19:52:39.184Z,101869.50
2023-04-05T19:55:32.332Z,101875.09
2023-04-05T19:58:02.821Z,101869.25
2023-04-05T20:00:37.281Z,101871.63
2023-04-05T20:03:28.759Z,101840.88
2023-04-05T20:06:08.868Z,101876.81
2023-04-05T20:08:40.802Z,101855.34
2023-04-05T20:11:11.904Z,101875.00
2023-04-05T20:13:45.173Z,101870.66
2023-04-05T20:16:16.747Z,101871.38
2023-04-05T20:18:49.273Z,101840.56
2023-04-05T20:21:19.214Z,101856.69
2023-04-05T20:23:50.711Z,101847.28
2023-04-05T20:26:26.426Z,101855.94
2023-04-05T20:28:56.274Z,101832.16
2023-04-05T20:31:29.568Z,101843.16
2023-04-05T20:34:00.005Z,101848.34
2023-04-05T20:36:33.365Z,101864.94
2023-04-05T20:39:04.320Z,101842.75
2023-04-05T20:41:33.161Z,101831.59
2023-04-05T20:44:02.238Z,101693.28
2023-04-05T20:46:32.436Z,101834.19
2023-04-05T20:49:04.341Z,101832.59
2023-04-05T20:51:36.464Z,101829.13
2023-04-05T20:54:09.135Z,101837.03
2023-04-05T20:56:38.055Z,101827.81
2023-04-05T20:59:07.235Z,101833.00
2023-04-05T21:01:38.736Z,101828.66
2023-04-05T21:04:07.702Z,101828.59
2023-04-05T21:06:37.570Z,101825.97
2023-04-05T21:09:08.591Z,101818.31
2023-04-05T21:11:37.776Z,101827.81
2023-04-05T21:14:06.719Z,101815.81
2023-04-05T21:16:37.885Z,101811.59
2023-04-05T21:19:06.994Z,101813.31
2023-04-05T21:21:36.220Z,101806.41
2023-04-05T21:24:05.219Z,101801.16
2023-04-05T21:26:35.429Z,101802.34
2023-04-05T21:29:07.085Z,101806.00
2023-04-05T21:31:38.584Z,101790.59
2023-04-05T21:34:07.441Z,101797.38
2023-04-05T21:36:36.245Z,101792.13
2023-04-05T21:39:05.518Z,101792.94
2023-04-05T21:41:35.736Z,101790.53
2023-04-05T21:44:07.148Z,101758.06
2023-04-05T21:46:35.998Z,101792.19
2023-04-05T21:49:05.882Z,101792.53
2023-04-05T21:51:34.804Z,101799.41
2023-04-05T21:54:03.589Z,101796.28
2023-04-05T21:56:32.503Z,101796.44
2023-04-05T21:59:02.726Z,101790.47
2023-04-05T22:01:31.604Z,101792.31
2023-04-05T22:04:00.345Z,101802.06
2023-04-05T22:06:29.335Z,101781.44
2023-04-05T22:08:58.112Z,101784.84
2023-04-05T22:11:27.598Z,101778.09
2023-04-05T22:13:58.672Z,101781.50
2023-04-05T22:16:28.913Z,101783.28
2023-04-05T22:18:58.021Z,101784.28
2023-04-05T22:21:27.001Z,101773.19
2023-04-05T22:23:55.932Z,101798.19
2023-04-05T22:26:24.782Z,101780.09
2023-04-05T22:28:53.582Z,101775.88
2023-04-05T22:31:22.457Z,101770.59
2023-04-05T22:33:54.794Z,101770.72
2023-04-05T22:36:23.731Z,101768.03
2023-04-05T22:38:54.277Z,101769.78
2023-04-05T22:41:23.430Z,101755.19
2023-04-05T22:43:54.615Z,101752.63
2023-04-05T22:46:23.481Z,101760.22
2023-04-05T22:48:56.271Z,101757.72
2023-04-05T22:51:27.702Z,101766.19
2023-04-05T22:53:56.564Z,101742.97
2023-04-05T22:56:27.708Z,101760.09
2023-04-05T22:58:56.665Z,101743.19
2023-04-05T23:01:25.769Z,101745.25
2023-04-05T23:03:55.987Z,101747.75
2023-04-05T23:06:27.856Z,101746.75
2023-04-05T23:08:58.540Z,101746.81
2023-04-05T23:11:29.800Z,101733.72
2023-04-05T23:14:01.141Z,101725.19
2023-04-05T23:16:32.958Z,101737.09
2023-04-05T23:19:05.921Z,101735.34
2023-04-05T23:21:34.795Z,101730.22
2023-04-05T23:24:07.199Z,101735.16
2023-04-05T23:26:36.293Z,101726.00
2023-04-05T23:29:07.792Z,101725.19
2023-04-05T23:31:36.915Z,101721.53
2023-04-05T23:34:09.570Z,101720.09
2023-04-05T23:36:38.793Z,101723.53
2023-04-05T23:39:07.970Z,101716.53
2023-04-05T23:41:39.274Z,101723.47
2023-04-05T23:44:08.240Z,101708.81
2023-04-05T23:46:37.139Z,101711.72
2023-04-05T23:49:06.481Z,101708.94
2023-04-05T23:51:39.026Z,101728.38
2023-04-05T23:54:10.332Z,101711.78
2023-04-05T23:56:39.768Z,101713.88
2023-04-05T23:59:08.765Z,101701.03
